createdAt,value
2019-03-02T00:00:02.146Z,4.60
2019-03-02T00:02:31.868Z,4.60
2019-03-02T00:05:02.184Z,4.60
2019-03-02T00:07:32.520Z,4.60
2019-03-02T00:10:02.908Z,4.50
2019-03-02T00:12:33.273Z,4.50
2019-03-02T00:15:03.589Z,4.50
2019-03-02T00:17:34.092Z,4.50
2019-03-02T00:20:04.630Z,4.50
2019-03-02T00:22:34.942Z,4.50
2019-03-02T00:25:05.401Z,4.50
2019-03-02T00:27:35.717Z,4.40
2019-03-02T00:30:06.665Z,4.40
2019-03-02T00:32:37.028Z,4.40
2019-03-02T00:35:08.235Z,4.30
2019-03-02T00:37:39.075Z,4.30
2019-03-02T00:40:09.604Z,4.20
2019-03-02T00:42:40.352Z,4.20
2019-03-02T00:45:14.054Z,4.20
2019-03-02T00:47:42.708Z,4.30
2019-03-02T00:50:13.133Z,4.30
2019-03-02T00:52:43.445Z,4.30
2019-03-02T00:55:13.853Z,4.30
2019-03-02T00:57:44.358Z,4.30
2019-03-02T01:00:16.243Z,4.40
2019-03-02T01:02:47.000Z,4.40
2019-03-02T01:05:17.417Z,4.30
2019-03-02T01:07:47.952Z,4.30
2019-03-02T01:10:21.056Z,4.30
2019-03-02T01:12:50.331Z,4.30
2019-03-02T01:15:20.638Z,4.30
2019-03-02T01:17:50.981Z,4.30
2019-03-02T01:20:24.721Z,4.30
2019-03-02T01:22:53.237Z,4.30
2019-03-02T01:25:23.564Z,4.30
2019-03-02T01:27:53.885Z,4.30
2019-03-02T01:30:26.670Z,4.30
2019-03-02T01:32:56.646Z,4.30
2019-03-02T01:35:26.949Z,4.30
2019-03-02T01:37:57.263Z,4.30
2019-03-02T01:40:27.600Z,4.10
2019-03-02T01:42:57.915Z,4.10
2019-03-02T01:45:28.991Z,4.00
2019-03-02T01:47:59.484Z,4.00
2019-03-02T01:50:29.881Z,4.00
2019-03-02T01:53:00.313Z,4.00
2019-03-02T01:55:31.272Z,4.00
2019-03-02T01:58:02.352Z,3.90
2019-03-02T02:00:32.860Z,3.90
2019-03-02T02:03:03.261Z,3.90
2019-03-02T02:05:33.575Z,3.90
2019-03-02T02:08:03.972Z,3.80
2019-03-02T02:10:34.628Z,3.90
2019-03-02T02:13:06.302Z,3.90
2019-03-02T02:15:39.129Z,3.90
2019-03-02T02:18:09.268Z,3.90
2019-03-02T02:20:39.662Z,3.90
2019-03-02T02:23:13.188Z,3.90
2019-03-02T02:25:41.954Z,4.00
2019-03-02T02:28:12.262Z,4.00
2019-03-02T02:30:42.613Z,4.00
2019-03-02T02:33:13.119Z,4.00
2019-03-02T02:35:43.453Z,4.00
2019-03-02T02:38:15.950Z,4.00
2019-03-02T02:40:45.765Z,4.00
2019-03-02T02:43:20.431Z,4.00
2019-03-02T02:45:49.109Z,4.00
2019-03-02T02:48:19.956Z,4.00
2019-03-02T02:50:50.338Z,4.10
2019-03-02T02:53:20.829Z,4.10
2019-03-02T02:55:51.112Z,4.10
2019-03-02T02:58:21.462Z,4.10
2019-03-02T03:00:55.214Z,4.10
2019-03-02T03:03:23.783Z,4.10
2019-03-02T03:05:55.597Z,4.20
2019-03-02T03:08:45.826Z,4.20
2019-03-02T03:11:18.920Z,4.20
2019-03-02T03:13:49.366Z,4.30
2019-03-02T03:16:19.726Z,4.30
2019-03-02T03:18:52.491Z,4.30
2019-03-02T03:21:27.152Z,4.20
2019-03-02T03:23:54.276Z,4.30
2019-03-02T03:26:24.619Z,4.30
2019-03-02T03:28:54.926Z,4.40
2019-03-02T03:31:26.676Z,4.40
2019-03-02T03:33:57.242Z,4.50
2019-03-02T03:36:30.207Z,4.50
2019-03-02T03:39:02.745Z,4.60
2019-03-02T03:41:31.492Z,4.60
2019-03-02T03:44:01.794Z,4.60
2019-03-02T03:46:32.114Z,4.70
2019-03-02T03:49:02.431Z,4.70
2019-03-02T03:51:34.806Z,4.70
2019-03-02T03:54:06.955Z,4.70
2019-03-02T03:56:37.658Z,4.70
2019-03-02T03:59:09.417Z,4.70
2019-03-02T04:01:40.087Z,4.70
2019-03-02T04:04:10.408Z,4.70
2019-03-02T04:06:40.964Z,4.70
2019-03-02T04:09:11.322Z,4.80
2019-03-02T04:11:43.312Z,4.80
2019-03-02T04:14:13.928Z,4.80
2019-03-02T04:16:44.280Z,4.70
2019-03-02T04:19:20.127Z,4.80
2019-03-02T04:21:50.453Z,4.70
2019-03-02T04:24:20.829Z,4.70
2019-03-02T04:26:51.162Z,4.60
2019-03-02T04:29:22.026Z,4.60
2019-03-02T04:31:52.505Z,4.60
2019-03-02T04:34:22.999Z,4.60
2019-03-02T04:36:53.405Z,4.60
2019-03-02T04:39:23.678Z,4.60
2019-03-02T04:41:54.045Z,4.70
2019-03-02T04:44:25.841Z,4.70
2019-03-02T04:46:56.312Z,4.70
2019-03-02T04:49:26.629Z,4.80
2019-03-02T04:51:57.091Z,4.80
2019-03-02T04:54:27.432Z,4.70
2019-03-02T04:56:58.967Z,4.70
2019-03-02T04:59:29.776Z,4.70
2019-03-02T05:02:00.105Z,4.70
2019-03-02T05:04:32.318Z,4.70
2019-03-02T05:07:02.377Z,4.70
2019-03-02T05:09:32.685Z,4.70
2019-03-02T05:12:03.009Z,4.60
2019-03-02T05:14:36.779Z,4.60
2019-03-02T05:17:07.329Z,4.60
2019-03-02T05:19:37.310Z,4.60
2019-03-02T05:22:07.576Z,4.60
2019-03-02T05:24:40.603Z,4.50
2019-03-02T05:27:10.561Z,4.60
2019-03-02T05:29:40.966Z,4.60
2019-03-02T05:32:12.543Z,4.60
2019-03-02T05:34:43.216Z,4.60
2019-03-02T05:37:13.553Z,4.60
2019-03-02T05:39:43.886Z,4.60
2019-03-02T05:42:14.631Z,4.60
2019-03-02T05:44:44.901Z,4.70
2019-03-02T05:47:15.238Z,4.70
2019-03-02T05:49:45.565Z,4.70
2019-03-02T05:52:17.845Z,4.70
2019-03-02T05:54:47.934Z,4.70
2019-03-02T05:57:18.280Z,4.60
2019-03-02T05:59:48.581Z,4.60
2019-03-02T06:02:18.922Z,4.70
2019-03-02T06:04:49.236Z,4.60
2019-03-02T06:07:19.556Z,4.60
2019-03-02T06:09:50.117Z,4.60
2019-03-02T06:12:21.400Z,4.60
2019-03-02T06:14:51.705Z,4.70
2019-03-02T06:17:22.043Z,4.70
2019-03-02T06:19:52.342Z,4.70
2019-03-02T06:22:22.688Z,4.70
2019-03-02T06:24:53.006Z,4.70
2019-03-02T06:27:23.360Z,4.70
2019-03-02T06:29:53.653Z,4.70
2019-03-02T06:32:25.971Z,4.70
2019-03-02T06:34:57.928Z,4.70
2019-03-02T06:37:31.168Z,4.60
2019-03-02T06:40:01.669Z,4.70
2019-03-02T06:42:32.022Z,4.70
2019-03-02T06:45:05.621Z,4.70
2019-03-02T06:47:35.274Z,4.70
2019-03-02T06:50:06.751Z,4.70
2019-03-02T06:52:37.034Z,4.70
2019-03-02T06:55:08.286Z,4.70
2019-03-02T06:57:39.766Z,4.70
2019-03-02T07:00:13.942Z,4.70
2019-03-02T07:02:44.449Z,4.80
2019-03-02T07:05:14.855Z,4.80
2019-03-02T07:07:45.444Z,4.80
2019-03-02T07:10:17.712Z,4.80
2019-03-02T07:12:49.767Z,4.80
2019-03-02T07:15:20.802Z,4.90
2019-03-02T07:18:14.626Z,4.90
2019-03-02T07:20:45.097Z,4.90
2019-03-02T07:23:15.449Z,4.90
2019-03-02T07:25:48.082Z,4.90
2019-03-02T07:28:18.475Z,4.90
2019-03-02T07:30:49.297Z,4.90
2019-03-02T07:33:20.183Z,5.00
2019-03-02T07:35:51.733Z,5.00
2019-03-02T07:38:25.215Z,5.00
2019-03-02T07:40:57.436Z,5.00
2019-03-02T07:43:27.809Z,5.00
2019-03-02T07:45:58.125Z,5.00
2019-03-02T07:48:28.493Z,5.00
2019-03-02T07:51:01.131Z,5.00
2019-03-02T07:53:31.109Z,5.00
2019-03-02T07:56:01.463Z,5.00
2019-03-02T07:58:31.850Z,5.10
2019-03-02T08:01:02.158Z,5.10
2019-03-02T08:03:32.849Z,5.10
2019-03-02T08:06:03.963Z,5.20
2019-03-02T08:08:34.552Z,5.10
2019-03-02T08:11:04.965Z,5.20
2019-03-02T08:13:36.598Z,5.20
2019-03-02T08:16:07.426Z,5.20
2019-03-02T08:18:37.814Z,5.20
2019-03-02T08:21:08.138Z,5.20
2019-03-02T08:23:40.629Z,5.30
2019-03-02T08:26:10.905Z,5.30
2019-03-02T08:28:42.181Z,5.30
2019-03-02T08:31:13.332Z,5.40
2019-03-02T08:33:46.073Z,5.40
2019-03-02T08:36:16.899Z,5.40
2019-03-02T08:38:48.473Z,5.40
2019-03-02T08:41:18.926Z,5.40
2019-03-02T08:43:49.293Z,5.50
2019-03-02T08:46:19.759Z,5.50
2019-03-02T08:48:50.120Z,5.50
2019-03-02T08:51:21.669Z,5.50
2019-03-02T08:53:52.006Z,5.60
2019-03-02T08:56:22.314Z,5.60
2019-03-02T08:58:52.708Z,5.70
2019-03-02T09:01:23.034Z,5.60
2019-03-02T09:03:53.374Z,5.60
2019-03-02T09:06:23.772Z,5.60
2019-03-02T09:08:54.091Z,5.60
2019-03-02T09:11:24.586Z,5.60
2019-03-02T09:13:54.885Z,5.50
2019-03-02T09:16:25.222Z,5.50
2019-03-02T09:18:55.556Z,5.50
2019-03-02T09:21:25.905Z,5.50
2019-03-02T09:23:56.220Z,5.40
2019-03-02T09:26:26.553Z,5.50
2019-03-02T09:28:57.539Z,5.50
2019-03-02T09:31:27.886Z,5.50
2019-03-02T09:34:01.061Z,5.60
2019-03-02T09:36:31.213Z,5.60
2019-03-02T09:39:02.102Z,5.70
2019-03-02T09:41:32.426Z,5.80
2019-03-02T09:44:02.729Z,5.80
2019-03-02T09:46:34.179Z,5.90
2019-03-02T09:49:04.543Z,5.90
2019-03-02T09:51:36.104Z,5.90
2019-03-02T09:54:05.928Z,6.00
2019-03-02T09:56:36.302Z,6.00
2019-03-02T09:59:06.415Z,6.10
2019-03-02T10:01:39.287Z,6.10
2019-03-02T10:04:08.690Z,6.20
2019-03-02T10:06:39.453Z,6.20
2019-03-02T10:09:10.027Z,6.20
2019-03-02T10:11:40.481Z,6.30
2019-03-02T10:14:28.260Z,6.30
2019-03-02T10:16:58.598Z,6.30
2019-03-02T10:19:29.796Z,6.40
2019-03-02T10:22:00.221Z,6.50
2019-03-02T10:24:30.614Z,6.50
2019-03-02T10:27:00.950Z,6.50
2019-03-02T10:29:32.401Z,6.50
2019-03-02T10:32:04.415Z,6.50
2019-03-02T10:34:34.877Z,6.60
2019-03-02T10:37:07.347Z,6.70
2019-03-02T10:39:37.566Z,6.70
2019-03-02T10:42:07.973Z,6.70
2019-03-02T10:44:38.750Z,6.70
2019-03-02T10:47:09.266Z,6.70
2019-03-02T10:49:39.676Z,6.70
2019-03-02T10:52:13.035Z,6.70
2019-03-02T10:54:41.986Z,6.70
2019-03-02T10:57:12.484Z,6.70
2019-03-02T10:59:42.828Z,6.70
2019-03-02T11:02:13.255Z,6.70
2019-03-02T11:05:21.194Z,6.70
2019-03-02T11:08:09.265Z,6.60
2019-03-02T11:10:52.278Z,6.60
2019-03-02T11:13:41.478Z,6.60
2019-03-02T11:16:25.431Z,6.60
2019-03-02T11:19:17.834Z,6.60
2019-03-02T11:22:04.371Z,6.60
2019-03-02T11:24:44.617Z,6.60
2019-03-02T11:27:21.296Z,6.70
2019-03-02T11:30:12.735Z,6.70
2019-03-02T11:32:52.587Z,6.70
2019-03-02T11:35:33.784Z,6.80
2019-03-02T11:38:27.958Z,6.80
2019-03-02T11:41:17.138Z,6.70
2019-03-02T11:44:05.554Z,6.80
2019-03-02T11:46:55.286Z,6.80
2019-03-02T11:49:45.391Z,6.80
2019-03-02T11:52:35.047Z,6.80
2019-03-02T11:55:30.569Z,6.80
2019-03-02T11:58:18.876Z,6.80
2019-03-02T12:01:14.383Z,6.90
2019-03-02T12:04:02.639Z,7.00
2019-03-02T12:06:51.817Z,7.10
2019-03-02T12:09:30.410Z,7.10
2019-03-02T12:12:35.198Z,7.10
2019-03-02T12:15:24.962Z,7.10
2019-03-02T12:18:12.776Z,7.20
2019-03-02T12:20:59.699Z,7.10
2019-03-02T12:23:37.785Z,7.30
2019-03-02T12:26:19.452Z,7.30
2019-03-02T12:29:20.998Z,7.30
2019-03-02T12:32:03.950Z,7.30
2019-03-02T12:34:45.017Z,7.30
2019-03-02T12:37:36.436Z,7.30
2019-03-02T12:40:28.904Z,7.30
2019-03-02T12:43:12.919Z,7.40
2019-03-02T12:46:01.399Z,7.50
2019-03-02T12:48:53.778Z,7.60
2019-03-02T12:51:39.079Z,7.60
2019-03-02T12:54:24.861Z,7.70
2019-03-02T12:57:08.725Z,7.70
2019-03-02T13:00:00.673Z,7.80
2019-03-02T13:03:08.538Z,7.90
2019-03-02T13:06:00.494Z,7.90
2019-03-02T13:08:46.009Z,7.80
2019-03-02T13:11:28.927Z,7.80
2019-03-02T13:14:17.167Z,7.80
2019-03-02T13:17:03.687Z,7.80
2019-03-02T13:20:08.679Z,7.90
2019-03-02T13:23:08.024Z,7.90
2019-03-02T13:25:58.804Z,8.00
2019-03-02T13:28:48.173Z,7.90
2019-03-02T13:31:46.951Z,8.00
2019-03-02T13:34:36.217Z,7.90
2019-03-02T13:37:30.567Z,7.90
2019-03-02T13:40:15.682Z,7.90
2019-03-02T13:42:52.876Z,7.90
2019-03-02T13:45:51.834Z,7.90
2019-03-02T13:48:38.508Z,7.90
2019-03-02T13:51:29.794Z,7.80
2019-03-02T13:54:09.723Z,7.80
2019-03-02T13:57:01.023Z,7.80
2019-03-02T13:59:53.661Z,7.90
2019-03-02T14:02:55.364Z,8.00
2019-03-02T14:05:44.978Z,8.00
2019-03-02T14:08:33.374Z,8.00
2019-03-02T14:11:19.778Z,8.00
2019-03-02T14:14:12.138Z,8.10
2019-03-02T14:17:13.849Z,8.10
2019-03-02T14:19:55.202Z,8.20
2019-03-02T14:22:31.774Z,8.20
2019-03-02T14:25:13.127Z,8.20
2019-03-02T14:28:12.195Z,8.30
2019-03-02T14:30:48.302Z,8.40
2019-03-02T14:33:33.634Z,8.40
2019-03-02T14:36:10.884Z,8.50
2019-03-02T14:38:57.301Z,8.40
2019-03-02T14:41:44.727Z,8.40
2019-03-02T14:44:34.515Z,8.50
2019-03-02T14:47:27.163Z,8.40
2019-03-02T14:50:06.388Z,8.40
2019-03-02T14:52:48.438Z,8.50
2019-03-02T14:55:34.876Z,8.50
2019-03-02T14:58:23.259Z,8.50
2019-03-02T15:01:18.842Z,8.50
2019-03-02T15:04:14.213Z,8.50
2019-03-02T15:07:06.599Z,8.60
2019-03-02T15:09:49.635Z,8.70
2019-03-02T15:12:58.498Z,8.60
2019-03-02T15:15:47.630Z,8.60
2019-03-02T15:18:36.949Z,8.80
2019-03-02T15:21:31.051Z,8.90
2019-03-02T15:24:23.596Z,8.80
2019-03-02T15:27:20.281Z,8.90
2019-03-02T15:30:15.842Z,8.90
2019-03-02T15:33:08.473Z,8.90
2019-03-02T15:36:07.147Z,8.80
2019-03-02T15:38:49.979Z,8.80
2019-03-02T15:41:42.164Z,8.70
2019-03-02T15:44:29.274Z,8.70
2019-03-02T15:47:16.050Z,8.70
2019-03-02T15:50:08.806Z,8.70
2019-03-02T15:53:07.584Z,8.70
2019-03-02T15:55:57.598Z,8.70
2019-03-02T15:58:55.698Z,8.70
2019-03-02T16:01:54.031Z,8.60
2019-03-02T16:04:47.199Z,8.60
2019-03-02T16:07:51.743Z,8.70
2019-03-02T16:10:59.630Z,8.60
2019-03-02T16:13:50.053Z,8.60
2019-03-02T16:16:38.933Z,8.60
2019-03-02T16:19:34.955Z,8.60
2019-03-02T16:22:30.063Z,8.50
2019-03-02T16:25:21.418Z,8.50
2019-03-02T16:28:05.556Z,8.50
2019-03-02T16:30:55.948Z,8.50
2019-03-02T16:34:04.197Z,8.50
2019-03-02T16:36:50.645Z,8.40
2019-03-02T16:39:42.667Z,8.40
2019-03-02T16:42:25.924Z,8.40
2019-03-02T16:45:10.887Z,8.30
2019-03-02T16:47:57.939Z,8.40
2019-03-02T16:50:53.874Z,8.40
2019-03-02T16:53:46.842Z,8.40
2019-03-02T16:56:45.097Z,8.40
2019-03-02T16:59:32.284Z,8.30
2019-03-02T17:02:27.570Z,8.20
2019-03-02T17:05:23.059Z,8.30
2019-03-02T17:08:05.422Z,8.20
2019-03-02T17:10:52.420Z,8.20
2019-03-02T17:17:34.138Z,8.30
2019-03-02T17:20:27.041Z,8.20
2019-03-02T17:23:24.046Z,8.20
2019-03-02T17:26:09.068Z,8.20
2019-03-02T17:28:57.756Z,8.20
2019-03-02T17:31:53.954Z,8.20
2019-03-02T17:34:45.089Z,8.30
2019-03-02T17:37:28.382Z,8.30
2019-03-02T17:40:16.921Z,8.30
2019-03-02T17:43:03.692Z,8.20
2019-03-02T17:45:49.745Z,8.20
2019-03-02T17:48:31.362Z,8.20
2019-03-02T17:51:23.774Z,8.30
2019-03-02T17:54:12.129Z,8.30
2019-03-02T17:57:04.527Z,8.20
2019-03-02T17:59:52.843Z,8.20
2019-03-02T18:02:31.518Z,8.20
2019-03-02T18:05:28.485Z,8.20
2019-03-02T18:08:14.113Z,8.20
2019-03-02T18:11:13.437Z,8.20
2019-03-02T18:14:02.574Z,8.20
2019-03-02T18:16:55.000Z,8.20
2019-03-02T18:19:25.366Z,8.20
2019-03-02T18:21:57.533Z,8.30
2019-03-02T18:24:27.902Z,8.30
2019-03-02T18:27:00.836Z,8.30
2019-03-02T18:29:38.861Z,8.20
2019-03-02T18:32:19.624Z,8.20
2019-03-02T18:34:50.825Z,8.20
2019-03-02T18:37:21.161Z,8.20
2019-03-02T18:39:51.817Z,8.20
2019-03-02T18:42:27.090Z,8.20
2019-03-02T18:45:00.581Z,8.20
2019-03-02T18:47:31.378Z,8.20
2019-03-02T18:50:28.788Z,8.10
2019-03-02T18:53:02.366Z,8.10
2019-03-02T18:55:33.174Z,8.10
2019-03-02T18:58:08.855Z,8.10
2019-03-02T19:00:45.545Z,8.10
2019-03-02T19:03:15.982Z,8.10
2019-03-02T19:05:50.122Z,8.10
2019-03-02T19:08:18.333Z,8.00
2019-03-02T19:10:48.655Z,8.00
2019-03-02T19:13:19.031Z,8.00
2019-03-02T19:15:53.725Z,8.00
2019-03-02T19:18:22.657Z,8.00
2019-03-02T19:20:53.831Z,8.00
2019-03-02T19:23:27.871Z,8.00
2019-03-02T19:25:59.477Z,8.00
2019-03-02T19:28:31.032Z,7.90
2019-03-02T19:31:03.179Z,7.90
2019-03-02T19:33:35.359Z,7.90
2019-03-02T19:36:07.810Z,7.90
2019-03-02T19:38:39.531Z,7.90
2019-03-02T19:41:11.304Z,8.00
2019-03-02T19:43:44.620Z,7.90
2019-03-02T19:46:15.894Z,8.00
2019-03-02T19:48:47.657Z,8.00
2019-03-02T19:51:20.259Z,8.00
2019-03-02T19:53:51.946Z,8.00
2019-03-02T19:56:23.937Z,8.00
2019-03-02T19:58:58.909Z,8.00
2019-03-02T20:01:30.443Z,8.00
2019-03-02T20:04:03.327Z,8.00
2019-03-02T20:06:36.227Z,8.00
2019-03-02T20:09:08.446Z,8.00
2019-03-02T20:11:40.621Z,8.00
2019-03-02T20:14:12.565Z,8.00
2019-03-02T20:16:44.274Z,8.00
2019-03-02T20:19:16.764Z,8.00
2019-03-02T20:21:48.148Z,8.00
2019-03-02T20:24:20.154Z,8.00
2019-03-02T20:26:51.967Z,8.00
2019-03-02T20:29:23.512Z,8.00
2019-03-02T20:31:55.363Z,8.00
2019-03-02T20:34:26.887Z,8.00
2019-03-02T20:36:59.925Z,8.00
2019-03-02T20:39:31.510Z,8.00
2019-03-02T20:42:01.772Z,8.00
2019-03-02T20:44:33.804Z,8.00
2019-03-02T20:47:05.990Z,8.00
2019-03-02T20:49:40.810Z,8.00
2019-03-02T20:52:12.063Z,8.00
2019-03-02T20:54:45.538Z,8.00
2019-03-02T20:57:17.923Z,8.00
2019-03-02T20:59:49.031Z,8.00
2019-03-02T21:02:20.908Z,8.00
2019-03-02T21:04:53.081Z,8.10
2019-03-02T21:07:24.937Z,8.10
2019-03-02T21:09:59.529Z,8.00
2019-03-02T21:12:29.981Z,8.10
2019-03-02T21:15:01.867Z,8.10
2019-03-02T21:17:33.693Z,8.10
2019-03-02T21:20:08.206Z,8.10
2019-03-02T21:22:39.888Z,8.10
2019-03-02T21:25:12.507Z,8.10
2019-03-02T21:27:43.010Z,8.10
2019-03-02T21:30:14.637Z,8.10
2019-03-02T21:32:44.970Z,8.00
2019-03-02T21:35:16.905Z,8.10
2019-03-02T21:37:49.199Z,8.10
2019-03-02T21:40:21.696Z,8.10
2019-03-02T21:42:53.873Z,8.10
2019-03-02T21:45:26.034Z,8.10
2019-03-02T21:47:57.391Z,8.10
2019-03-02T21:50:28.788Z,8.10
2019-03-02T21:53:00.267Z,8.10
2019-03-02T21:55:32.057Z,8.10
2019-03-02T21:58:03.947Z,8.10
2019-03-02T22:00:35.901Z,8.10
2019-03-02T22:03:07.701Z,8.00
2019-03-02T22:05:40.201Z,8.10
2019-03-02T22:08:11.840Z,8.10
2019-03-02T22:10:52.730Z,8.10
2019-03-02T22:13:23.717Z,8.10
2019-03-02T22:15:55.448Z,8.10
2019-03-02T22:18:26.979Z,8.10
2019-03-02T22:20:59.148Z,8.10
2019-03-02T22:23:31.168Z,8.20
2019-03-02T22:26:02.647Z,8.20
2019-03-02T22:28:34.173Z,8.20
2019-03-02T22:31:07.257Z,8.20
2019-03-02T22:33:40.954Z,8.30
2019-03-02T22:36:12.891Z,8.20
2019-03-02T22:38:44.338Z,8.30
2019-03-02T22:41:17.185Z,8.30
2019-03-02T22:43:48.709Z,8.30
2019-03-02T22:46:20.526Z,8.40
2019-03-02T22:48:51.428Z,8.40
2019-03-02T22:51:23.452Z,8.30
2019-03-02T22:53:55.208Z,8.30
2019-03-02T22:56:25.141Z,8.30
2019-03-02T22:58:54.180Z,8.30
2019-03-02T23:02:10.476Z,8.30
2019-03-02T23:04:42.557Z,8.40
2019-03-02T23:07:15.494Z,8.30
2019-03-02T23:09:47.323Z,8.30
2019-03-02T23:12:19.378Z,8.30
2019-03-02T23:14:50.363Z,8.30
2019-03-02T23:17:20.666Z,8.30
2019-03-02T23:19:53.869Z,8.30
2019-03-02T23:22:24.326Z,8.30
2019-03-02T23:24:54.706Z,8.30
2019-03-02T23:27:25.006Z,8.30
2019-03-02T23:29:55.411Z,8.30
2019-03-02T23:32:27.772Z,8.30
2019-03-02T23:34:57.930Z,8.30
2019-03-02T23:37:28.257Z,8.30
2019-03-02T23:39:58.679Z,8.30
2019-03-02T23:42:29.063Z,8.30
2019-03-02T23:44:59.395Z,8.30
2019-03-02T23:47:29.702Z,8.30
2019-03-02T23:50:00.282Z,8.30
2019-03-02T23:52:31.878Z,8.30
2019-03-02T23:55:03.193Z,8.30
2019-03-02T23:57:33.569Z,8.40
